Time;durP1;ratioP1;P1;durP2;ratioP2;P2;SDS_P1;SDS_P2;PMS_P1;PMS_P2;Temp;Humidity;BMP_temperature;BMP_pressure;BME280_temperature;BME280_humidity;BME280_pressure;Samples;Min_cycle;Max_cycle;Signal;HPM_P1;HPM_P2
2022/03/27 00:01:22;;;;;;;20.20;18.10;;;12.50;56.90;;;;;;5011488;28;20170;-76
2022/03/27 00:03:48;;;;;;;21.40;17.30;;;12.50;57.20;;;;;;5012486;28;20159;-76
2022/03/27 00:06:13;;;;;;;21.27;19.00;;;12.50;57.40;;;;;;5012717;28;20248;-76
2022/03/27 00:08:39;;;;;;;21.60;17.30;;;12.50;57.70;;;;;;5011855;28;20540;-77
2022/03/27 00:13:49;;;;;;;21.77;17.23;;;12.50;58.20;;;;;;5012364;28;20174;-76
2022/03/27 00:16:15;;;;;;;18.35;16.45;;;12.40;58.30;;;;;;5012423;28;20206;-76
2022/03/27 00:18:41;;;;;;;18.30;15.43;;;12.40;58.60;;;;;;5012112;28;20174;-77
2022/03/27 00:21:08;;;;;;;18.07;16.00;;;12.40;58.90;;;;;;5015954;28;20174;-76
2022/03/27 00:23:34;;;;;;;20.23;16.92;;;12.40;59.20;;;;;;5012680;28;20580;-78
2022/03/27 00:26:00;;;;;;;16.63;14.90;;;12.40;59.50;;;;;;5012286;28;20194;-78
2022/03/27 00:28:31;;;;;;;19.13;16.10;;;12.40;59.70;;;;;;5011988;28;20566;-78
2022/03/27 00:31:01;;;;;;;17.20;15.40;;;12.40;60.00;;;;;;5010701;28;20273;-79
2022/03/27 00:33:28;;;;;;;18.00;14.68;;;12.30;61.00;;;;;;5012341;28;20179;-79
2022/03/27 00:35:58;;;;;;;21.13;16.02;;;12.40;61.20;;;;;;5012337;28;20217;-79
2022/03/27 00:38:25;;;;;;;18.95;15.70;;;12.30;62.20;;;;;;5010825;28;20508;-79
2022/03/27 00:40:52;;;;;;;15.45;13.85;;;12.30;62.10;;;;;;5010835;28;20713;-79
2022/03/27 00:43:19;;;;;;;19.63;14.68;;;12.30;62.30;;;;;;5012246;28;20576;-79
2022/03/27 00:45:46;;;;;;;18.13;14.75;;;12.30;63.20;;;;;;5012290;28;20562;-79
2022/03/27 00:48:18;;;;;;;18.70;15.77;;;12.30;63.30;;;;;;5011742;28;20261;-79
2022/03/27 00:50:45;;;;;;;17.15;14.98;;;12.30;63.60;;;;;;5011929;28;20177;-79
2022/03/27 00:53:10;;;;;;;16.85;13.48;;;12.30;64.00;;;;;;5012321;28;20170;-79
2022/03/27 00:55:37;;;;;;;17.90;14.70;;;12.30;64.30;;;;;;5011947;28;20209;-80
2022/03/27 00:58:04;;;;;;;18.52;15.30;;;12.20;64.40;;;;;;5014884;28;20173;-78
2022/03/27 01:00:38;;;;;;;18.15;14.65;;;12.20;64.60;;;;;;5012086;28;20249;-79
2022/03/27 01:03:11;;;;;;;15.48;13.68;;;12.20;65.90;;;;;;5012013;28;20204;-75
2022/03/27 01:05:38;;;;;;;17.10;14.55;;;12.20;65.80;;;;;;5011834;28;20551;-76
2022/03/27 01:08:09;;;;;;;18.65;14.95;;;12.20;65.60;;;;;;4993801;28;20175;-76
2022/03/27 01:10:36;;;;;;;16.83;14.00;;;12.20;66.40;;;;;;5011616;28;20197;-76
2022/03/27 01:13:25;;;;;;;19.20;14.55;;;12.20;66.20;;;;;;4977708;28;20182;-78
2022/03/27 01:15:58;;;;;;;16.20;13.10;;;12.20;66.90;;;;;;5011156;28;20218;-76
2022/03/27 01:18:25;;;;;;;16.35;14.68;;;12.10;67.00;;;;;;5011463;28;20175;-77
2022/03/27 01:20:53;;;;;;;16.27;14.13;;;12.10;67.70;;;;;;5010837;28;20170;-78
2022/03/27 01:23:19;;;;;;;20.30;14.93;;;12.10;67.30;;;;;;5011573;28;20178;-78
2022/03/27 01:25:45;;;;;;;16.10;14.40;;;12.10;67.70;;;;;;5011572;28;20308;-77
2022/03/27 01:28:14;;;;;;;20.45;15.73;;;12.00;67.90;;;;;;5011172;28;20249;-77
2022/03/27 01:30:41;;;;;;;17.55;15.60;;;12.00;68.90;;;;;;5010168;28;20178;-77
2022/03/27 01:33:10;;;;;;;16.40;14.45;;;12.00;68.50;;;;;;5011742;28;20185;-77
2022/03/27 01:35:37;;;;;;;16.58;14.65;;;12.00;69.20;;;;;;5014182;28;20236;-77
2022/03/27 01:38:03;;;;;;;15.35;13.70;;;12.00;69.00;;;;;;5010787;28;20186;-77
2022/03/27 01:40:29;;;;;;;18.30;14.20;;;12.00;69.40;;;;;;5010742;28;20610;-77
2022/03/27 01:42:55;;;;;;;21.00;16.57;;;11.90;69.60;;;;;;5011394;28;20940;-76
2022/03/27 01:45:23;;;;;;;20.15;17.35;;;11.90;69.90;;;;;;5014737;28;20585;-76
2022/03/27 01:47:49;;;;;;;21.20;17.40;;;11.90;70.30;;;;;;5014894;28;20228;-76
2022/03/27 01:50:15;;;;;;;21.15;18.85;;;11.80;70.60;;;;;;5014868;28;20221;-75
2022/03/27 01:52:40;;;;;;;21.30;18.87;;;11.80;70.80;;;;;;5014948;28;20182;-76
2022/03/27 01:55:07;;;;;;;19.63;16.73;;;11.80;71.10;;;;;;5013438;28;20674;-76
2022/03/27 01:57:33;;;;;;;21.65;18.33;;;11.80;71.40;;;;;;5014626;28;20250;-75
2022/03/27 01:59:59;;;;;;;20.57;16.30;;;11.70;71.70;;;;;;4997056;28;20249;-75
2022/03/27 02:02:25;;;;;;;19.90;16.60;;;11.70;71.80;;;;;;5014837;28;20572;-75
2022/03/27 02:04:55;;;;;;;20.15;17.77;;;11.70;72.00;;;;;;5014714;28;20257;-74
2022/03/27 02:07:22;;;;;;;22.55;15.90;;;11.70;72.50;;;;;;5014380;28;20189;-74
2022/03/27 02:09:49;;;;;;;20.30;16.88;;;11.70;72.90;;;;;;5013524;28;20174;-74
2022/03/27 02:12:15;;;;;;;18.75;15.80;;;11.60;73.00;;;;;;5000909;28;20237;-74
2022/03/27 02:14:41;;;;;;;20.65;15.32;;;11.60;73.10;;;;;;5014753;28;20169;-75
2022/03/27 02:17:08;;;;;;;17.97;14.73;;;11.60;73.50;;;;;;5014289;28;20182;-75
2022/03/27 02:19:37;;;;;;;22.35;15.60;;;11.50;73.70;;;;;;5014498;28;20630;-75
2022/03/27 02:22:04;;;;;;;19.60;15.30;;;11.50;74.10;;;;;;5014393;28;20170;-75
2022/03/27 02:24:30;;;;;;;18.50;15.27;;;11.50;74.40;;;;;;5013229;28;20243;-75
2022/03/27 02:26:55;;;;;;;19.42;15.57;;;11.40;74.60;;;;;;5014427;28;20197;-75
2022/03/27 02:29:21;;;;;;;17.40;14.97;;;11.40;75.00;;;;;;5014034;28;20163;-75
2022/03/27 02:31:47;;;;;;;16.83;12.90;;;11.40;75.10;;;;;;5014321;28;20575;-75
2022/03/27 02:34:14;;;;;;;16.50;14.80;;;11.30;75.40;;;;;;5012954;28;20261;-75
2022/03/27 02:36:41;;;;;;;18.77;14.70;;;11.30;75.90;;;;;;5013742;28;20206;-75
2022/03/27 02:39:06;;;;;;;16.88;13.77;;;11.30;76.30;;;;;;5012680;28;20170;-75
2022/03/27 02:41:32;;;;;;;18.30;14.10;;;11.20;76.60;;;;;;5014323;28;20269;-75
2022/03/27 02:43:58;;;;;;;19.20;15.30;;;11.20;76.90;;;;;;5014171;28;20225;-74
2022/03/27 02:46:24;;;;;;;17.27;14.30;;;11.20;77.50;;;;;;5012836;28;20195;-75
2022/03/27 02:48:49;;;;;;;18.53;13.23;;;11.20;78.00;;;;;;5015841;28;20663;-75
2022/03/27 02:51:15;;;;;;;15.87;13.27;;;11.20;78.50;;;;;;5013810;28;20178;-74
2022/03/27 02:53:41;;;;;;;16.30;14.27;;;11.10;79.00;;;;;;5013950;28;20228;-74
2022/03/27 02:56:08;;;;;;;13.33;11.40;;;11.10;79.40;;;;;;5013188;28;20606;-74
2022/03/27 02:58:35;;;;;;;14.35;12.30;;;11.10;80.00;;;;;;5013433;28;20305;-73
2022/03/27 03:01:02;;;;;;;14.30;12.13;;;11.10;80.40;;;;;;5013502;28;20601;-73
2022/03/27 03:03:28;;;;;;;15.95;13.35;;;11.10;80.80;;;;;;5013581;28;20202;-74
2022/03/27 03:05:55;;;;;;;18.10;13.47;;;11.10;81.30;;;;;;5013384;28;20221;-76
2022/03/27 03:08:21;;;;;;;29.80;12.90;;;11.10;81.70;;;;;;5013098;28;20605;-73
2022/03/27 03:10:46;;;;;;;14.10;12.57;;;11.10;82.20;;;;;;5012170;28;20221;-73
2022/03/27 03:13:13;;;;;;;14.83;12.50;;;11.00;82.50;;;;;;5013175;28;20624;-74
2022/03/27 03:15:41;;;;;;;12.88;10.80;;;11.00;83.10;;;;;;5012842;28;20636;-74
2022/03/27 03:18:11;;;;;;;16.25;12.75;;;11.00;83.70;;;;;;5012921;28;20178;-74
2022/03/27 03:20:38;;;;;;;13.70;11.02;;;11.00;84.20;;;;;;5013149;28;20685;-74
2022/03/27 03:23:04;;;;;;;19.17;12.02;;;11.00;84.60;;;;;;5013599;28;20178;-75
2022/03/27 03:25:31;;;;;;;11.90;9.77;;;11.00;85.20;;;;;;5018478;28;20194;-74
2022/03/27 03:27:56;;;;;;;13.35;10.23;;;11.00;86.00;;;;;;5013069;28;20181;-74
2022/03/27 03:30:23;;;;;;;14.23;10.93;;;10.90;86.20;;;;;;5011568;28;20174;-74
2022/03/27 03:32:49;;;;;;;13.77;9.80;;;10.90;87.00;;;;;;5011844;28;20572;-74
2022/03/27 03:35:15;;;;;;;13.45;10.70;;;10.90;87.40;;;;;;5012872;28;20248;-74
2022/03/27 03:37:41;;;;;;;11.23;10.13;;;10.90;87.90;;;;;;5012647;28;20186;-74
2022/03/27 03:40:07;;;;;;;12.93;10.87;;;10.90;88.50;;;;;;5012769;28;20245;-74
2022/03/27 03:42:34;;;;;;;14.02;10.38;;;10.90;89.10;;;;;;5012931;28;20988;-74
2022/03/27 03:45:00;;;;;;;14.13;11.02;;;10.80;89.50;;;;;;5012594;28;20174;-74
2022/03/27 03:47:26;;;;;;;11.48;10.27;;;10.80;90.00;;;;;;5012223;28;20591;-74
2022/03/27 03:49:52;;;;;;;14.33;10.53;;;10.80;90.20;;;;;;5012514;28;20209;-74
2022/03/27 03:52:18;;;;;;;12.23;10.70;;;10.80;90.40;;;;;;5011207;28;20204;-74
2022/03/27 03:54:44;;;;;;;12.85;10.07;;;10.80;90.70;;;;;;5012504;28;20177;-74
2022/03/27 03:57:10;;;;;;;14.37;10.40;;;10.80;91.00;;;;;;5011008;28;20190;-74
2022/03/27 03:59:36;;;;;;;10.20;9.30;;;10.80;91.20;;;;;;5012376;28;20169;-74
2022/03/27 04:02:05;;;;;;;11.23;9.90;;;10.80;91.50;;;;;;5012453;28;20185;-74
2022/03/27 04:04:32;;;;;;;11.25;9.75;;;10.70;91.70;;;;;;5012603;28;20591;-74
2022/03/27 04:06:59;;;;;;;10.45;8.95;;;10.80;92.00;;;;;;5011623;28;20972;-74
2022/03/27 04:09:25;;;;;;;10.70;9.57;;;10.70;92.10;;;;;;5010820;28;20261;-74
2022/03/27 04:11:51;;;;;;;13.77;9.77;;;10.70;92.40;;;;;;5012329;28;20166;-74
2022/03/27 04:14:17;;;;;;;10.60;9.20;;;10.70;92.60;;;;;;5012370;28;20631;-74
2022/03/27 04:16:44;;;;;;;12.00;9.07;;;10.70;92.80;;;;;;5011077;28;20625;-74
2022/03/27 04:19:11;;;;;;;10.57;8.60;;;10.70;93.10;;;;;;5011913;28;20518;-74
2022/03/27 04:21:37;;;;;;;11.18;9.60;;;10.70;93.30;;;;;;5012283;28;20566;-75
2022/03/27 04:24:03;;;;;;;13.37;11.10;;;10.70;93.50;;;;;;5012345;28;20193;-74
2022/03/27 04:26:28;;;;;;;14.27;10.85;;;10.60;93.60;;;;;;5012059;28;20965;-74
2022/03/27 04:28:54;;;;;;;11.00;9.47;;;10.60;93.90;;;;;;5011903;28;20166;-74
2022/03/27 04:31:20;;;;;;;11.60;9.87;;;10.60;94.10;;;;;;5010813;28;20514;-74
2022/03/27 04:33:45;;;;;;;10.57;8.83;;;10.60;94.30;;;;;;5012193;28;20170;-75
2022/03/27 04:36:11;;;;;;;10.57;8.53;;;10.60;94.60;;;;;;5011780;28;20670;-74
2022/03/27 04:38:37;;;;;;;10.97;9.87;;;10.50;94.80;;;;;;5014175;28;20166;-74
2022/03/27 04:41:03;;;;;;;11.87;9.33;;;10.50;95.00;;;;;;5013644;28;20599;-74
2022/03/27 04:43:29;;;;;;;12.20;10.70;;;10.50;95.20;;;;;;5010733;28;20245;-74
2022/03/27 04:45:55;;;;;;;11.60;9.97;;;10.50;95.50;;;;;;5010720;28;20666;-74
2022/03/27 04:48:21;;;;;;;11.35;9.43;;;10.50;95.70;;;;;;5011581;28;20201;-74
2022/03/27 04:50:48;;;;;;;11.60;9.83;;;10.50;95.90;;;;;;5011818;28;20198;-75
2022/03/27 04:53:13;;;;;;;11.45;8.85;;;10.40;96.10;;;;;;5011972;28;20175;-75
2022/03/27 04:55:39;;;;;;;13.43;9.70;;;10.40;96.30;;;;;;5009629;28;20221;-74
2022/03/27 04:58:09;;;;;;;10.63;9.40;;;10.40;96.50;;;;;;5009744;28;20520;-74
2022/03/27 05:00:35;;;;;;;11.80;9.60;;;10.40;97.00;;;;;;5011650;28;20182;-75
2022/03/27 05:03:01;;;;;;;11.85;9.63;;;10.40;96.90;;;;;;5011888;28;20196;-75
2022/03/27 05:05:27;;;;;;;11.50;10.30;;;10.40;97.20;;;;;;5011810;28;20702;-75
2022/03/27 05:07:53;;;;;;;10.60;9.23;;;10.40;97.40;;;;;;5011621;28;20561;-74
2022/03/27 05:10:19;;;;;;;10.95;9.25;;;10.30;97.60;;;;;;5011658;28;20170;-75
2022/03/27 05:12:46;;;;;;;12.90;9.05;;;10.40;97.80;;;;;;5011694;28;20238;-74
2022/03/27 05:15:12;;;;;;;14.67;10.90;;;10.40;98.00;;;;;;5010596;28;20201;-75
2022/03/27 05:17:51;;;;;;;12.20;9.95;;;10.30;98.50;;;;;;5016263;28;20582;-74
2022/03/27 05:20:17;;;;;;;12.10;10.68;;;10.30;98.90;;;;;;5015454;28;20170;-75
2022/03/27 05:22:44;;;;;;;14.43;11.70;;;10.30;98.50;;;;;;5015429;28;20169;-75
2022/03/27 05:25:11;;;;;;;10.02;8.80;;;10.30;98.80;;;;;;5015416;28;20516;-74
2022/03/27 05:27:51;;;;;;;13.13;9.77;;;10.30;99.00;;;;;;5015191;28;20257;-75
2022/03/27 05:30:21;;;;;;;11.45;10.00;;;10.30;99.40;;;;;;5015253;28;20169;-74
2022/03/27 05:32:48;;;;;;;12.20;10.50;;;10.30;99.50;;;;;;5015349;28;20167;-75
2022/03/27 05:35:15;;;;;;;9.93;8.85;;;10.30;99.50;;;;;;5015079;28;20198;-74
2022/03/27 05:37:45;;;;;;;14.27;11.25;;;10.30;99.60;;;;;;5014833;28;20542;-75
2022/03/27 05:40:13;;;;;;;15.93;10.05;;;10.30;99.90;;;;;;5015156;28;20254;-75
2022/03/27 05:42:39;;;;;;;12.60;11.32;;;10.30;99.90;;;;;;5015046;28;20162;-74
2022/03/27 05:45:07;;;;;;;14.00;10.83;;;10.30;99.90;;;;;;5015003;28;20162;-74
2022/03/27 05:47:33;;;;;;;12.30;11.00;;;10.30;99.90;;;;;;5014790;28;20561;-74
2022/03/27 05:50:00;;;;;;;12.88;11.27;;;10.30;99.90;;;;;;5014879;28;20571;-74
2022/03/27 05:52:26;;;;;;;12.88;10.15;;;10.30;99.90;;;;;;5016871;28;20174;-75
2022/03/27 05:54:52;;;;;;;13.87;11.63;;;10.40;99.90;;;;;;5016510;28;20170;-75
2022/03/27 05:57:19;;;;;;;13.93;10.93;;;10.40;99.90;;;;;;5013453;28;21047;-74
2022/03/27 05:59:45;;;;;;;12.70;10.02;;;10.50;99.90;;;;;;5014854;28;20167;-75
2022/03/27 06:02:12;;;;;;;12.10;8.90;;;10.50;99.90;;;;;;5014794;28;20167;-74
2022/03/27 06:04:38;;;;;;;11.27;9.95;;;10.60;99.90;;;;;;5014934;28;20639;-74
2022/03/27 06:07:04;;;;;;;12.75;11.48;;;10.70;99.90;;;;;;5014712;28;20293;-74
2022/03/27 06:09:30;;;;;;;13.45;10.50;;;10.70;99.90;;;;;;5014536;28;20639;-74
2022/03/27 06:11:56;;;;;;;12.43;10.03;;;10.80;99.90;;;;;;5014560;28;20173;-74
2022/03/27 06:14:22;;;;;;;12.20;9.43;;;10.80;99.90;;;;;;5014707;28;20193;-74
2022/03/27 06:16:47;;;;;;;10.60;8.93;;;10.90;99.90;;;;;;5014173;28;20210;-74
2022/03/27 06:19:13;;;;;;;12.43;10.17;;;11.00;99.90;;;;;;5014096;28;20261;-75
2022/03/27 06:21:39;;;;;;;9.40;8.43;;;11.00;99.90;;;;;;5014357;28;20166;-75
2022/03/27 06:24:05;;;;;;;12.30;9.53;;;11.10;99.90;;;;;;5012946;28;20170;-75
2022/03/27 06:26:30;;;;;;;11.57;9.30;;;11.20;99.90;;;;;;5013513;28;20564;-75
2022/03/27 06:28:56;;;;;;;13.90;9.70;;;11.30;99.90;;;;;;5012410;28;20170;-75
2022/03/27 06:31:22;;;;;;;8.37;7.47;;;11.30;99.90;;;;;;5017407;28;20167;-75
2022/03/27 06:33:48;;;;;;;10.53;9.43;;;11.50;99.90;;;;;;5014431;28;20515;-75
2022/03/27 06:36:13;;;;;;;11.30;9.13;;;11.50;99.90;;;;;;5014032;28;20194;-75
2022/03/27 06:38:39;;;;;;;10.87;8.80;;;11.60;99.90;;;;;;5012761;28;20662;-75
2022/03/27 06:41:06;;;;;;;11.30;8.30;;;11.70;99.90;;;;;;5013038;28;20158;-75
2022/03/27 06:43:33;;;;;;;10.15;8.77;;;11.80;99.90;;;;;;5014066;28;20528;-75
2022/03/27 06:45:59;;;;;;;10.75;7.90;;;11.90;99.90;;;;;;5012872;28;20582;-75
2022/03/27 06:48:25;;;;;;;10.10;9.10;;;12.00;99.90;;;;;;5014007;28;20171;-75
2022/03/27 06:50:51;;;;;;;12.23;9.40;;;12.20;99.90;;;;;;5012673;28;20631;-75
2022/03/27 06:53:20;;;;;;;10.40;9.30;;;12.30;99.90;;;;;;5012624;28;20225;-75
2022/03/27 06:55:49;;;;;;;10.50;8.23;;;12.50;99.90;;;;;;5013878;28;20210;-75
2022/03/27 06:58:14;;;;;;;11.15;9.13;;;12.70;99.90;;;;;;5013704;28;20174;-75
2022/03/27 07:03:25;;;;;;;10.45;8.90;;;13.10;99.90;;;;;;5013793;28;20205;-75
2022/03/27 07:05:51;;;;;;;11.10;9.10;;;13.30;99.90;;;;;;5013800;28;20186;-75
2022/03/27 07:08:20;;;;;;;9.90;8.40;;;13.50;99.90;;;;;;5015685;28;20197;-75
2022/03/27 07:10:47;;;;;;;10.65;8.60;;;13.60;99.90;;;;;;5013529;28;20225;-76
2022/03/27 07:13:14;;;;;;;10.07;9.13;;;13.80;99.90;;;;;;5013553;28;20201;-75
2022/03/27 07:15:41;;;;;;;10.68;9.10;;;14.00;99.90;;;;;;5013394;28;20194;-75
2022/03/27 07:18:08;;;;;;;12.27;9.77;;;14.20;99.90;;;;;;5013289;28;20163;-75
2022/03/27 07:20:36;;;;;;;11.13;8.90;;;14.40;99.90;;;;;;5013250;28;20175;-76
2022/03/27 07:23:08;;;;;;;10.40;9.07;;;14.50;99.90;;;;;;5012206;28;20177;-75
2022/03/27 07:25:35;;;;;;;10.60;9.50;;;14.70;99.90;;;;;;5013305;28;20186;-75
2022/03/27 07:28:02;;;;;;;11.38;10.18;;;14.90;99.90;;;;;;5013030;28;20646;-76
2022/03/27 07:30:28;;;;;;;9.65;8.75;;;15.00;99.90;;;;;;5013099;28;20176;-75
2022/03/27 07:32:54;;;;;;;11.53;10.20;;;15.20;99.90;;;;;;5013278;28;20174;-74
2022/03/27 07:35:20;;;;;;;12.13;10.87;;;15.30;99.90;;;;;;5013079;28;20213;-75
2022/03/27 07:37:49;;;;;;;13.00;11.70;;;15.50;99.90;;;;;;5011557;28;20178;-76
2022/03/27 07:40:15;;;;;;;12.60;11.30;;;15.70;99.90;;;;;;5011320;28;20565;-76
2022/03/27 07:42:46;;;;;;;12.00;10.83;;;15.90;99.90;;;;;;5006750;28;20975;-76
2022/03/27 07:45:14;;;;;;;12.97;11.70;;;16.20;99.90;;;;;;5012092;28;20585;-76
2022/03/27 07:47:40;;;;;;;14.07;11.10;;;16.50;99.90;;;;;;5014447;28;20621;-76
2022/03/27 07:50:07;;;;;;;13.57;12.30;;;16.90;99.90;;;;;;5012979;28;21010;-76
2022/03/27 07:52:36;;;;;;;12.40;11.20;;;17.50;99.90;;;;;;5012882;28;20581;-76
2022/03/27 07:55:02;;;;;;;11.47;10.27;;;18.20;99.90;;;;;;5002233;28;20594;-77
2022/03/27 07:57:28;;;;;;;11.77;10.57;;;18.90;99.90;;;;;;4993056;28;20980;-76
2022/03/27 07:59:54;;;;;;;11.50;10.40;;;19.30;99.90;;;;;;4993128;28;20606;-76
2022/03/27 08:02:21;;;;;;;14.43;12.93;;;19.90;99.90;;;;;;4993098;28;20563;-76
2022/03/27 08:04:48;;;;;;;12.63;11.43;;;20.50;99.90;;;;;;4993068;28;21308;-76
2022/03/27 08:07:14;;;;;;;12.70;11.50;;;21.20;99.70;;;;;;4992890;28;20590;-76
2022/03/27 08:09:40;;;;;;;11.63;10.63;;;22.00;99.00;;;;;;4992961;28;20567;-76
2022/03/27 08:12:08;;;;;;;9.93;8.30;;;22.60;97.60;;;;;;4991612;28;20570;-76
2022/03/27 08:14:43;;;;;;;10.37;9.33;;;23.00;96.50;;;;;;5005749;28;20942;-76
2022/03/27 08:17:09;;;;;;;9.10;8.20;;;23.30;95.30;;;;;;5011466;28;20632;-76
2022/03/27 08:19:35;;;;;;;8.97;8.17;;;23.50;94.30;;;;;;5010051;28;20585;-76
2022/03/27 08:22:02;;;;;;;10.40;7.97;;;23.80;93.50;;;;;;5014212;28;20700;-77
2022/03/27 08:24:28;;;;;;;9.80;8.90;;;24.00;92.60;;;;;;5009362;28;21023;-77
2022/03/27 08:26:58;;;;;;;9.77;8.87;;;24.20;92.10;;;;;;5009657;28;20724;-77
2022/03/27 08:29:29;;;;;;;8.13;7.43;;;24.40;91.20;;;;;;5010620;28;20617;-77
2022/03/27 08:31:59;;;;;;;10.17;9.17;;;24.50;90.30;;;;;;5012061;28;21121;-77
2022/03/27 08:34:25;;;;;;;8.97;8.07;;;24.70;89.00;;;;;;5010695;28;20577;-77
2022/03/27 08:36:51;;;;;;;10.37;9.30;;;24.90;88.40;;;;;;5002096;28;20652;-76
2022/03/27 08:39:18;;;;;;;10.23;9.10;;;25.10;85.90;;;;;;5000402;28;20578;-77
2022/03/27 08:41:45;;;;;;;9.90;8.83;;;25.50;86.20;;;;;;5000787;28;20577;-75
2022/03/27 08:44:13;;;;;;;9.83;8.93;;;26.00;85.50;;;;;;5002749;28;20581;-75
2022/03/27 08:46:40;;;;;;;12.20;11.00;;;26.40;82.00;;;;;;5001305;28;20629;-75
2022/03/27 08:49:11;;;;;;;13.93;12.53;;;26.80;79.60;;;;;;5035469;22;21239;-75
2022/03/27 08:51:47;;;;;;;14.50;13.07;;;26.90;77.30;;;;;;5024774;28;20584;-75
2022/03/27 08:54:22;;;;;;;15.43;13.83;;;27.30;69.10;;;;;;5027426;28;20568;-76
2022/03/27 08:57:01;;;;;;;13.67;12.27;;;27.50;69.20;;;;;;5010112;28;20631;-76
2022/03/27 08:59:28;;;;;;;11.97;10.80;;;27.50;68.90;;;;;;5026944;28;20959;-76
2022/03/27 09:01:54;;;;;;;13.03;11.17;;;27.90;69.90;;;;;;5010773;28;20584;-76
2022/03/27 09:04:19;;;;;;;14.30;11.90;;;28.50;69.60;;;;;;5011117;28;20652;-77
2022/03/27 09:06:45;;;;;;;11.73;10.73;;;29.00;68.50;;;;;;5011013;28;20188;-77
2022/03/27 09:09:11;;;;;;;12.70;11.40;;;29.50;67.20;;;;;;5014198;28;20210;-77
2022/03/27 09:11:37;;;;;;;13.57;11.70;;;30.00;65.90;;;;;;4996416;28;20575;-77
2022/03/27 09:14:03;;;;;;;12.40;11.20;;;30.50;64.20;;;;;;4994770;28;20182;-77
2022/03/27 09:16:29;;;;;;;13.13;11.83;;;31.00;62.80;;;;;;4984376;28;20179;-77
2022/03/27 09:19:01;;;;;;;13.07;11.87;;;31.50;61.10;;;;;;4974430;28;20970;-77
2022/03/27 09:21:27;;;;;;;10.90;9.90;;;31.90;59.00;;;;;;4976094;28;20655;-77
2022/03/27 09:23:59;;;;;;;11.33;10.33;;;32.30;58.20;;;;;;4974885;28;20688;-79
2022/03/27 09:26:26;;;;;;;10.47;9.57;;;32.50;56.50;;;;;;4991240;28;20744;-77
2022/03/27 09:28:54;;;;;;;10.90;9.87;;;32.80;55.60;;;;;;4974247;28;20648;-77
2022/03/27 09:31:23;;;;;;;9.97;9.07;;;33.00;53.20;;;;;;4974375;28;20587;-77
2022/03/27 09:34:00;;;;;;;9.37;8.53;;;33.20;53.30;;;;;;4974545;28;20918;-77
2022/03/27 09:36:30;;;;;;;8.70;7.90;;;33.30;52.00;;;;;;4984980;28;20643;-77
2022/03/27 09:39:20;;;;;;;7.80;7.20;;;33.40;52.10;;;;;;5010168;28;20594;-76
2022/03/27 09:41:50;;;;;;;8.17;7.37;;;33.60;51.90;;;;;;5009527;28;20591;-77
2022/03/27 09:44:18;;;;;;;7.47;6.83;;;33.80;51.40;;;;;;4990358;28;20569;-76
2022/03/27 09:46:50;;;;;;;7.03;6.50;;;34.00;50.60;;;;;;4990525;28;20615;-76
2022/03/27 09:49:17;;;;;;;7.60;6.90;;;34.20;49.70;;;;;;4990435;28;20963;-77
2022/03/27 09:51:54;;;;;;;5.87;5.20;;;34.20;49.20;;;;;;4991095;28;21002;-77
2022/03/27 09:54:21;;;;;;;6.97;6.47;;;34.40;49.00;;;;;;4992102;28;20612;-77
2022/03/27 09:56:47;;;;;;;7.17;6.47;;;34.40;48.30;;;;;;5011324;28;20646;-77
2022/03/27 09:59:31;;;;;;;6.50;5.80;;;34.50;48.30;;;;;;4974331;28;20637;-77
2022/03/27 10:02:19;;;;;;;7.20;6.60;;;34.70;48.10;;;;;;4974687;28;20579;-76
2022/03/27 10:04:55;;;;;;;6.63;6.10;;;34.80;47.10;;;;;;4991731;28;20933;-77
2022/03/27 10:07:23;;;;;;;6.67;6.13;;;34.70;46.40;;;;;;4993935;28;20591;-76
2022/03/27 10:09:49;;;;;;;7.37;6.67;;;34.70;46.00;;;;;;4993816;28;20969;-76
2022/03/27 10:12:16;;;;;;;7.60;7.00;;;34.60;45.80;;;;;;5010717;28;21020;-77
2022/03/27 10:14:43;;;;;;;8.10;7.37;;;34.60;45.40;;;;;;4978005;28;20684;-77
2022/03/27 10:17:12;;;;;;;7.20;6.70;;;34.60;44.70;;;;;;4993579;28;20733;-77
2022/03/27 10:19:50;;;;;;;7.20;6.60;;;34.60;45.00;;;;;;4993928;28;21285;-76
2022/03/27 10:22:20;;;;;;;6.57;6.07;;;34.70;44.50;;;;;;4994177;28;20570;-76
2022/03/27 10:24:51;;;;;;;7.27;6.60;;;34.60;43.60;;;;;;4993971;28;20580;-77
2022/03/27 10:27:19;;;;;;;7.40;6.80;;;34.50;43.60;;;;;;4977499;28;20571;-76
2022/03/27 10:29:46;;;;;;;6.90;6.30;;;34.40;43.80;;;;;;4977456;28;20612;-77
2022/03/27 10:32:13;;;;;;;7.23;6.57;;;34.40;43.90;;;;;;4994136;28;20595;-77
2022/03/27 10:34:56;;;;;;;5.67;5.27;;;34.30;43.90;;;;;;4997830;28;20606;-77
2022/03/27 10:38:11;;;;;;;7.33;6.63;;;34.20;43.70;;;;;;4993125;28;20630;-77
2022/03/27 10:41:01;;;;;;;8.70;7.00;;;33.80;43.30;;;;;;4960756;28;20678;-76
2022/03/27 10:43:42;;;;;;;6.50;6.00;;;33.40;43.00;;;;;;4993770;28;20601;-77
2022/03/27 10:46:15;;;;;;;6.80;6.20;;;33.00;43.20;;;;;;5000211;28;20609;-76
2022/03/27 10:48:45;;;;;;;7.40;6.80;;;32.80;44.20;;;;;;5000857;28;20651;-76
2022/03/27 10:51:34;;;;;;;6.93;6.43;;;32.60;43.80;;;;;;5004435;28;20657;-76
2022/03/27 10:54:15;;;;;;;7.73;7.03;;;32.40;44.10;;;;;;5005595;28;20606;-77
2022/03/27 10:56:42;;;;;;;7.20;6.60;;;32.30;44.00;;;;;;5012029;28;20708;-77
2022/03/27 10:59:10;;;;;;;7.67;6.97;;;32.20;44.00;;;;;;4992487;28;20735;-77
2022/03/27 11:01:47;;;;;;;7.87;7.17;;;32.10;44.00;;;;;;5002910;28;20588;-77
2022/03/27 11:04:37;;;;;;;6.93;6.33;;;32.10;44.10;;;;;;5012727;28;20570;-77
2022/03/27 11:07:20;;;;;;;6.27;5.77;;;31.90;43.30;;;;;;5013812;28;21132;-77
2022/03/27 11:09:46;;;;;;;7.43;6.83;;;31.70;43.70;;;;;;5015524;28;20637;-76
2022/03/27 11:12:24;;;;;;;7.67;7.00;;;31.60;43.70;;;;;;5015081;28;20590;-77
2022/03/27 11:14:54;;;;;;;7.50;6.80;;;31.40;43.60;;;;;;4995942;28;20646;-77
2022/03/27 11:17:30;;;;;;;7.80;7.00;;;31.30;43.70;;;;;;5013531;28;21170;-77
2022/03/27 11:19:56;;;;;;;7.90;7.30;;;31.20;43.60;;;;;;5012475;28;20593;-77
2022/03/27 11:22:52;;;;;;;8.00;7.30;;;31.00;43.80;;;;;;4996174;28;21187;-77
2022/03/27 11:25:30;;;;;;;7.67;6.90;;;30.90;43.60;;;;;;4992944;28;20703;-77
2022/03/27 11:28:08;;;;;;;7.60;6.90;;;30.80;43.90;;;;;;5011760;28;20720;-76
2022/03/27 11:30:37;;;;;;;7.10;6.53;;;30.70;45.00;;;;;;5011915;28;21152;-76
2022/03/27 11:33:15;;;;;;;8.37;7.57;;;30.70;44.60;;;;;;5011811;28;21074;-76
2022/03/27 11:36:00;;;;;;;8.97;8.17;;;30.70;44.50;;;;;;4995652;28;21490;-77
2022/03/27 11:38:31;;;;;;;7.33;6.73;;;30.60;44.30;;;;;;5011562;28;20605;-76
2022/03/27 11:41:17;;;;;;;9.00;8.20;;;30.30;43.80;;;;;;5011823;28;20577;-76
2022/03/27 11:43:43;;;;;;;8.00;7.20;;;29.80;43.40;;;;;;4995382;28;21168;-76
2022/03/27 11:46:19;;;;;;;9.00;8.20;;;29.30;43.70;;;;;;5011980;28;20695;-77
2022/03/27 11:48:56;;;;;;;6.80;6.20;;;28.90;44.40;;;;;;5015616;28;20206;-76
2022/03/27 11:51:24;;;;;;;7.50;6.23;;;28.60;44.90;;;;;;5011664;28;20910;-77
2022/03/27 11:53:51;;;;;;;7.33;6.73;;;28.50;45.30;;;;;;5011722;28;20565;-76
2022/03/27 11:56:17;;;;;;;8.10;7.30;;;28.50;45.70;;;;;;4995267;28;20992;-77
2022/03/27 11:58:43;;;;;;;6.47;5.87;;;28.40;45.80;;;;;;5012601;28;20616;-76
2022/03/27 12:01:09;;;;;;;6.83;6.17;;;28.30;46.00;;;;;;4994860;28;20668;-76
2022/03/27 12:03:37;;;;;;;6.90;6.30;;;28.40;46.60;;;;;;5011816;28;20174;-76
2022/03/27 12:06:08;;;;;;;7.60;6.93;;;28.60;46.60;;;;;;5011431;28;20629;-77
2022/03/27 12:08:39;;;;;;;7.07;6.50;;;28.70;46.20;;;;;;5010993;28;20620;-76
2022/03/27 12:11:07;;;;;;;5.93;5.40;;;28.60;45.60;;;;;;5011193;28;20664;-76
2022/03/27 12:13:42;;;;;;;11.60;6.60;;;28.30;45.10;;;;;;4994950;28;20574;-77
2022/03/27 12:16:16;;;;;;;7.00;6.37;;;27.90;44.90;;;;;;5027630;28;20561;-77
2022/03/27 12:18:45;;;;;;;5.53;5.00;;;27.50;45.00;;;;;;5011189;28;20597;-77
2022/03/27 12:21:12;;;;;;;5.80;5.30;;;27.20;45.20;;;;;;5011384;28;20562;-77
2022/03/27 12:23:41;;;;;;;6.93;6.33;;;26.90;45.70;;;;;;5029572;28;20616;-77
2022/03/27 12:31:56;;;;;;;6.23;4.73;;;27.00;48.10;;;;;;5010591;28;20561;-77
2022/03/27 12:34:24;;;;;;;6.93;6.33;;;27.30;48.20;;;;;;4997461;28;20580;-77
2022/03/27 12:37:14;;;;;;;8.47;5.63;;;27.50;48.30;;;;;;5011060;28;20580;-76
2022/03/27 12:39:48;;;;;;;5.20;4.70;;;27.50;47.80;;;;;;4987046;28;20617;-77
2022/03/27 12:42:30;;;;;;;8.20;6.80;;;27.60;47.30;;;;;;4986207;28;20583;-76
2022/03/27 12:45:01;;;;;;;7.07;6.47;;;27.40;46.90;;;;;;5010695;28;20641;-76
2022/03/27 12:47:58;;;;;;;6.63;6.03;;;27.20;46.50;;;;;;5068525;28;21358;-77
2022/03/27 12:50:32;;;;;;;7.63;6.93;;;26.90;46.90;;;;;;5067486;28;20896;-76
2022/03/27 12:53:24;;;;;;;6.67;6.07;;;26.70;47.00;;;;;;5067860;28;20907;-76
2022/03/27 12:55:50;;;;;;;8.80;6.87;;;26.40;46.90;;;;;;5067776;28;20958;-77